createdAt,value
2018-06-07T00:00:50.174Z,86.99
2018-06-07T00:03:19.078Z,87.58
2018-06-07T00:05:47.098Z,88.49
2018-06-07T00:08:15.751Z,87.88
2018-06-07T00:10:44.772Z,87.76
2018-06-07T00:13:13.639Z,87.39
2018-06-07T00:15:45.653Z,87.16
2018-06-07T00:18:13.474Z,87.32
2018-06-07T00:20:41.265Z,87.02
2018-06-07T00:23:09.765Z,86.46
2018-06-07T00:25:39.163Z,87.40
2018-06-07T00:28:08.675Z,87.56
2018-06-07T00:30:37.660Z,87.65
2018-06-07T00:33:07.694Z,87.21
2018-06-07T00:35:41.742Z,87.66
2018-06-07T00:38:11.334Z,86.87
2018-06-07T00:40:39.198Z,86.80
2018-06-07T00:43:07.093Z,87.19
2018-06-07T00:45:35.799Z,87.63
2018-06-07T00:48:04.981Z,87.89
2018-06-07T00:50:33.126Z,88.35
2018-06-07T00:53:01.820Z,87.80
2018-06-07T00:55:30.725Z,87.66
2018-06-07T00:57:59.430Z,87.68
2018-06-07T01:00:28.240Z,87.90
2018-06-07T01:02:57.143Z,87.99
2018-06-07T01:05:24.992Z,88.15
2018-06-07T01:07:52.866Z,88.23
2018-06-07T01:10:21.766Z,88.19
2018-06-07T01:12:50.430Z,88.41
2018-06-07T01:15:19.766Z,87.97
2018-06-07T01:17:48.675Z,87.67
2018-06-07T01:20:17.369Z,87.37
2018-06-07T01:22:47.412Z,87.29
2018-06-07T01:25:15.479Z,87.63
2018-06-07T01:27:44.208Z,89.02
2018-06-07T01:30:29.300Z,88.94
2018-06-07T01:33:08.429Z,89.56
2018-06-07T01:35:37.505Z,89.15
2018-06-07T01:38:10.862Z,89.72
2018-06-07T01:40:40.201Z,89.07
2018-06-07T01:43:09.204Z,89.57
2018-06-07T01:45:38.006Z,89.00
2018-06-07T01:48:06.867Z,89.56
2018-06-07T01:50:36.294Z,88.93
2018-06-07T01:53:05.055Z,89.03
2018-06-07T01:55:34.374Z,89.23
2018-06-07T01:58:03.701Z,88.92
2018-06-07T02:00:32.347Z,88.42
2018-06-07T02:03:01.210Z,88.57
2018-06-07T02:05:30.147Z,88.87
2018-06-07T02:07:58.865Z,88.33
2018-06-07T02:10:27.727Z,88.65
2018-06-07T02:12:57.094Z,89.01
2018-06-07T02:15:25.985Z,88.86
2018-06-07T02:17:54.551Z,88.76
2018-06-07T02:20:23.836Z,88.93
2018-06-07T02:22:52.412Z,89.23
2018-06-07T02:25:22.191Z,89.01
2018-06-07T02:27:50.919Z,88.55
2018-06-07T02:30:18.680Z,88.79
2018-06-07T02:32:47.976Z,88.17
2018-06-07T02:35:17.344Z,88.52
2018-06-07T02:37:46.391Z,88.97
2018-06-07T02:40:15.304Z,89.28
2018-06-07T02:42:44.174Z,88.78
2018-06-07T02:45:13.202Z,88.55
2018-06-07T02:47:42.497Z,89.19
2018-06-07T02:50:11.649Z,89.09
2018-06-07T02:52:40.217Z,88.87
2018-06-07T02:55:08.961Z,89.14
2018-06-07T02:57:37.814Z,88.92
2018-06-07T03:00:06.566Z,89.45
2018-06-07T03:02:35.660Z,89.86
2018-06-07T03:05:04.515Z,90.36
2018-06-07T03:07:33.141Z,90.14
2018-06-07T03:10:01.982Z,90.49
2018-06-07T03:12:31.546Z,90.33
2018-06-07T03:15:00.219Z,90.09
2018-06-07T03:17:29.030Z,90.12
2018-06-07T03:19:57.655Z,90.13
2018-06-07T03:22:27.551Z,89.99
2018-06-07T03:24:56.130Z,90.85
2018-06-07T03:27:24.910Z,90.45
2018-06-07T03:29:54.175Z,90.26
2018-06-07T03:32:23.076Z,89.98
2018-06-07T03:34:52.512Z,90.08
2018-06-07T03:37:21.971Z,90.07
2018-06-07T03:39:50.801Z,90.33
2018-06-07T03:42:18.632Z,90.71
2018-06-07T03:44:46.463Z,90.60
2018-06-07T03:47:15.229Z,90.98
2018-06-07T03:49:43.960Z,90.52
2018-06-07T03:52:13.360Z,90.92
2018-06-07T03:54:42.252Z,90.86
2018-06-07T03:57:10.980Z,91.45
2018-06-07T03:59:38.927Z,91.69
2018-06-07T04:02:07.496Z,91.18
2018-06-07T04:04:35.411Z,91.46
2018-06-07T04:07:03.589Z,91.12
2018-06-07T04:09:33.183Z,91.17
2018-06-07T04:12:02.121Z,90.91
2018-06-07T04:14:30.996Z,91.05
2018-06-07T04:16:59.613Z,90.42
2018-06-07T04:19:28.590Z,90.55
2018-06-07T04:21:57.169Z,90.15
2018-06-07T04:24:25.915Z,89.16
2018-06-07T04:26:53.661Z,88.77
2018-06-07T04:29:21.362Z,88.17
2018-06-07T04:31:49.990Z,87.42
2018-06-07T04:34:18.717Z,87.84
2018-06-07T04:36:47.920Z,87.60
2018-06-07T04:39:16.740Z,85.83
2018-06-07T04:41:45.685Z,85.26
2018-06-07T04:44:13.716Z,84.59
2018-06-07T04:46:42.540Z,85.18
2018-06-07T04:49:10.655Z,85.02
2018-06-07T04:51:39.602Z,85.67
2018-06-07T04:54:07.541Z,84.38
2018-06-07T04:56:35.366Z,83.94
2018-06-07T04:59:04.661Z,83.86
2018-06-07T05:01:34.106Z,81.22
2018-06-07T05:04:03.307Z,80.51
2018-06-07T05:06:32.031Z,80.57
2018-06-07T05:08:59.883Z,79.29
2018-06-07T05:11:28.731Z,78.09
2018-06-07T05:13:57.426Z,77.74
2018-06-07T05:16:26.881Z,76.30
2018-06-07T05:18:54.817Z,75.65
2018-06-07T05:21:23.503Z,73.75
2018-06-07T05:23:52.168Z,73.75
2018-06-07T05:26:21.381Z,75.79
2018-06-07T05:28:50.085Z,75.32
2018-06-07T05:31:18.677Z,75.99
2018-06-07T05:33:47.683Z,74.91
2018-06-07T05:36:16.432Z,73.08
2018-06-07T05:38:45.438Z,70.13
2018-06-07T05:41:14.181Z,67.63
2018-06-07T05:43:43.036Z,65.85
2018-06-07T05:46:11.782Z,65.38
2018-06-07T05:48:39.580Z,65.61
2018-06-07T05:51:08.241Z,64.71
2018-06-07T05:53:36.841Z,62.90
2018-06-07T05:56:05.791Z,59.60
2018-06-07T05:58:33.646Z,59.05
2018-06-07T06:01:02.589Z,61.43
2018-06-07T06:03:30.502Z,63.78
2018-06-07T06:05:59.167Z,64.72
2018-06-07T06:08:27.270Z,65.31
2018-06-07T06:10:55.155Z,66.62
2018-06-07T06:13:23.984Z,67.96
2018-06-07T06:15:52.717Z,68.01
2018-06-07T06:18:22.308Z,68.55
2018-06-07T06:20:51.657Z,69.25
2018-06-07T06:23:20.625Z,69.00
2018-06-07T06:25:49.318Z,68.93
2018-06-07T06:28:18.126Z,68.61
2018-06-07T06:30:47.067Z,69.38
2018-06-07T06:33:16.535Z,70.20
2018-06-07T06:35:45.754Z,70.79
2018-06-07T06:38:46.528Z,71.47
2018-06-07T06:41:15.481Z,70.91
2018-06-07T06:43:44.222Z,70.42
2018-06-07T06:46:12.950Z,68.33
2018-06-07T06:48:41.771Z,69.45
2018-06-07T06:51:10.407Z,70.43
2018-06-07T06:53:39.176Z,69.59
2018-06-07T06:56:07.847Z,70.31
2018-06-07T06:58:37.451Z,70.67
2018-06-07T07:01:06.261Z,70.69
2018-06-07T07:03:35.650Z,70.70
2018-06-07T07:06:03.691Z,70.74
2018-06-07T07:08:31.917Z,72.64
2018-06-07T07:11:00.907Z,72.67
2018-06-07T07:13:28.663Z,74.02
2018-06-07T07:15:57.760Z,73.70
2018-06-07T07:18:26.608Z,74.90
2018-06-07T07:20:55.204Z,73.38
2018-06-07T07:23:23.388Z,74.77
2018-06-07T07:25:51.953Z,74.00
2018-06-07T07:28:20.863Z,74.30
2018-06-07T07:30:50.242Z,74.16
2018-06-07T07:33:19.692Z,73.69
2018-06-07T07:35:48.658Z,73.79
2018-06-07T07:38:17.742Z,74.65
2018-06-07T07:40:45.667Z,75.30
2018-06-07T07:43:14.542Z,75.80
2018-06-07T07:45:42.449Z,75.35
2018-06-07T07:48:11.884Z,74.85
2018-06-07T07:50:40.528Z,73.98
2018-06-07T07:53:09.194Z,74.14
2018-06-07T07:55:38.445Z,74.07
2018-06-07T07:58:07.123Z,74.26
2018-06-07T08:00:35.937Z,73.94
2018-06-07T08:03:04.754Z,74.62
2018-06-07T08:05:33.478Z,71.47
2018-06-07T08:08:02.646Z,71.31
2018-06-07T08:10:31.876Z,72.13
2018-06-07T08:13:01.368Z,70.97
2018-06-07T08:15:29.942Z,70.97
2018-06-07T08:17:59.546Z,69.60
2018-06-07T08:20:28.303Z,69.49
2018-06-07T08:22:57.119Z,68.52
2018-06-07T08:25:26.192Z,69.79
2018-06-07T08:27:55.383Z,69.27
2018-06-07T08:30:24.244Z,68.87
2018-06-07T08:32:52.869Z,68.66
2018-06-07T08:35:21.750Z,68.21
2018-06-07T08:37:50.525Z,68.34
2018-06-07T08:40:19.248Z,69.01
2018-06-07T08:42:48.694Z,66.91
2018-06-07T08:45:17.989Z,65.27
2018-06-07T08:47:46.542Z,66.43
2018-06-07T08:50:16.713Z,66.51
2018-06-07T08:52:45.386Z,64.86
2018-06-07T08:55:14.884Z,62.37
2018-06-07T08:57:43.619Z,60.91
2018-06-07T09:00:12.666Z,60.94
2018-06-07T09:02:40.507Z,61.34
2018-06-07T09:05:08.412Z,59.68
2018-06-07T09:07:37.189Z,57.76
2018-06-07T09:10:06.562Z,59.00
2018-06-07T09:12:34.464Z,57.79
2018-06-07T09:15:02.772Z,60.81
2018-06-07T09:17:31.443Z,61.51
2018-06-07T09:19:59.223Z,61.09
2018-06-07T09:22:28.212Z,62.25
2018-06-07T09:24:56.368Z,57.86
2018-06-07T09:27:24.167Z,56.64
2018-06-07T09:29:52.725Z,58.99
2018-06-07T09:32:20.524Z,57.34
2018-06-07T09:34:48.363Z,58.41
2018-06-07T09:37:16.904Z,58.74
2018-06-07T09:39:44.814Z,57.62
2018-06-07T09:42:12.759Z,56.66
2018-06-07T09:44:40.735Z,57.14
2018-06-07T09:47:09.003Z,57.00
2018-06-07T09:49:37.032Z,56.53
2018-06-07T09:52:05.058Z,57.13
2018-06-07T09:54:32.803Z,54.66
2018-06-07T09:57:00.652Z,54.40
2018-06-07T09:59:29.233Z,52.67
2018-06-07T10:01:57.583Z,53.61
2018-06-07T10:04:25.653Z,55.52
2018-06-07T10:06:53.609Z,55.07
2018-06-07T10:09:21.394Z,54.04
2018-06-07T10:11:49.407Z,54.01
2018-06-07T10:14:17.910Z,54.07
2018-06-07T10:16:46.569Z,51.44
2018-06-07T10:19:15.351Z,48.91
2018-06-07T10:21:43.431Z,49.76
2018-06-07T10:24:12.764Z,49.05
2018-06-07T10:26:41.710Z,47.88
2018-06-07T10:29:10.496Z,48.84
2018-06-07T10:31:39.364Z,51.08
2018-06-07T10:34:07.915Z,49.63
2018-06-07T10:36:36.573Z,50.90
2018-06-07T10:39:07.784Z,52.48
2018-06-07T10:41:37.163Z,50.94
2018-06-07T10:44:06.031Z,51.72
2018-06-07T10:46:34.669Z,52.84
2018-06-07T10:49:04.008Z,49.63
2018-06-07T10:51:32.903Z,49.57
2018-06-07T10:54:01.633Z,47.62
2018-06-07T10:56:30.257Z,49.00
2018-06-07T10:58:59.006Z,47.88
2018-06-07T11:01:27.872Z,48.37
2018-06-07T11:03:56.587Z,48.00
2018-06-07T11:06:25.573Z,48.42
2018-06-07T11:08:55.168Z,49.20
2018-06-07T11:11:24.045Z,49.88
2018-06-07T11:13:53.412Z,50.40
2018-06-07T11:16:22.065Z,49.66
2018-06-07T11:18:50.881Z,48.78
2018-06-07T11:21:19.739Z,48.05
2018-06-07T11:23:48.535Z,46.92
2018-06-07T11:26:17.960Z,46.02
2018-06-07T11:28:46.595Z,45.44
2018-06-07T11:31:16.102Z,44.21
2018-06-07T11:33:45.097Z,42.08
2018-06-07T11:36:13.847Z,42.84
2018-06-07T11:38:42.578Z,40.61
2018-06-07T11:41:11.238Z,42.35
2018-06-07T11:43:40.222Z,42.67
2018-06-07T11:46:09.427Z,42.57
2018-06-07T11:48:38.119Z,43.38
2018-06-07T11:51:06.923Z,44.92
2018-06-07T11:53:36.119Z,43.65
2018-06-07T11:56:03.963Z,42.12
2018-06-07T11:58:31.723Z,42.33
2018-06-07T12:00:59.607Z,44.93
2018-06-07T12:03:28.288Z,43.73
2018-06-07T12:05:57.065Z,44.05
2018-06-07T12:08:25.631Z,43.57
2018-06-07T12:10:54.359Z,42.53
2018-06-07T12:13:22.882Z,46.76
2018-06-07T12:15:52.062Z,44.79
2018-06-07T12:18:20.809Z,43.45
2018-06-07T12:20:49.462Z,44.62
2018-06-07T12:23:19.005Z,44.43
2018-06-07T12:25:47.619Z,46.11
2018-06-07T12:28:16.335Z,43.34
2018-06-07T12:30:45.357Z,43.54
2018-06-07T12:33:14.948Z,42.02
2018-06-07T12:35:43.892Z,41.88
2018-06-07T12:38:13.194Z,42.12
2018-06-07T12:40:41.948Z,43.23
2018-06-07T12:43:10.624Z,42.82
2018-06-07T12:45:39.422Z,43.92
2018-06-07T12:48:08.079Z,46.19
2018-06-07T12:50:36.661Z,45.61
2018-06-07T12:53:05.528Z,46.23
2018-06-07T12:55:34.850Z,46.45
2018-06-07T12:58:04.558Z,46.82
2018-06-07T13:00:33.271Z,45.29
2018-06-07T13:03:02.595Z,45.02
2018-06-07T13:05:31.345Z,45.92
2018-06-07T13:08:00.095Z,45.91
2018-06-07T13:10:28.823Z,47.08
2018-06-07T13:12:57.507Z,47.56
2018-06-07T13:15:26.275Z,46.63
2018-06-07T13:17:54.960Z,46.15
2018-06-07T13:20:23.764Z,45.58
2018-06-07T13:22:52.435Z,46.31
2018-06-07T13:25:21.005Z,46.00
2018-06-07T13:27:49.807Z,46.63
2018-06-07T13:30:20.180Z,46.58
2018-06-07T13:32:48.828Z,46.74
2018-06-07T13:35:17.987Z,47.98
2018-06-07T13:37:46.758Z,46.98
2018-06-07T13:40:16.042Z,48.13
2018-06-07T13:42:44.624Z,47.58
2018-06-07T13:45:13.408Z,46.83
2018-06-07T13:47:42.238Z,47.05
2018-06-07T13:50:10.859Z,46.28
2018-06-07T13:52:39.858Z,47.17
2018-06-07T13:55:08.409Z,47.29
2018-06-07T13:57:37.245Z,47.85
2018-06-07T14:00:06.176Z,47.78
2018-06-07T14:02:34.975Z,46.68
2018-06-07T14:05:02.852Z,45.82
2018-06-07T14:07:31.434Z,47.32
2018-06-07T14:09:59.340Z,48.48
2018-06-07T14:12:27.940Z,47.11
2018-06-07T14:14:56.850Z,47.43
2018-06-07T14:17:25.653Z,47.54
2018-06-07T14:19:54.705Z,46.91
2018-06-07T14:22:23.591Z,48.01
2018-06-07T14:24:52.305Z,48.04
2018-06-07T14:27:21.339Z,49.78
2018-06-07T14:29:50.404Z,48.64
2018-06-07T14:32:19.084Z,47.18
2018-06-07T14:34:48.086Z,45.74
2018-06-07T14:37:16.914Z,46.70
2018-06-07T14:39:47.394Z,46.60
2018-06-07T14:42:16.489Z,45.48
2018-06-07T14:44:45.147Z,45.28
2018-06-07T14:47:15.215Z,45.76
2018-06-07T14:49:44.770Z,46.66
2018-06-07T14:52:13.601Z,46.50
2018-06-07T14:54:42.799Z,46.14
2018-06-07T14:57:11.135Z,46.55
2018-06-07T14:59:39.226Z,46.46
2018-06-07T15:02:07.396Z,46.82
2018-06-07T15:04:36.070Z,46.98
2018-06-07T15:07:04.133Z,47.87
2018-06-07T15:09:32.204Z,48.77
2018-06-07T15:12:00.081Z,47.89
2018-06-07T15:14:27.872Z,47.63
2018-06-07T15:16:57.204Z,48.33
2018-06-07T15:19:25.174Z,48.27
2018-06-07T15:21:53.424Z,47.88
2018-06-07T15:24:21.689Z,47.16
2018-06-07T15:26:50.070Z,45.85
2018-06-07T15:29:17.924Z,46.68
2018-06-07T15:31:46.094Z,47.00
2018-06-07T15:34:14.014Z,46.99
2018-06-07T15:36:43.154Z,47.87
2018-06-07T15:39:11.130Z,48.69
2018-06-07T15:41:40.689Z,48.15
2018-06-07T15:44:08.599Z,47.33
2018-06-07T15:46:36.767Z,48.63
2018-06-07T15:49:04.696Z,47.89
2018-06-07T15:51:32.719Z,47.15
2018-06-07T15:54:00.644Z,47.75
2018-06-07T15:56:28.934Z,48.00
2018-06-07T15:58:56.767Z,48.37
2018-06-07T16:01:25.656Z,48.26
2018-06-07T16:03:54.184Z,48.51
2018-06-07T16:06:22.125Z,48.55
2018-06-07T16:08:50.236Z,49.09
2018-06-07T16:11:19.055Z,49.49
2018-06-07T16:13:47.055Z,48.74
2018-06-07T16:16:16.854Z,49.25
2018-06-07T16:18:45.351Z,49.26
2018-06-07T16:21:16.011Z,48.61
2018-06-07T16:23:44.883Z,48.10
2018-06-07T16:26:14.824Z,49.45
2018-06-07T16:28:43.115Z,49.30
2018-06-07T16:31:11.039Z,49.37
2018-06-07T16:33:38.818Z,49.33
2018-06-07T16:36:07.806Z,48.76
2018-06-07T16:38:35.926Z,47.24
2018-06-07T16:41:04.709Z,47.00
2018-06-07T16:43:33.731Z,46.64
2018-06-07T16:46:02.790Z,45.85
2018-06-07T16:48:31.636Z,45.86
2018-06-07T16:51:01.209Z,45.54
2018-06-07T16:53:30.045Z,46.02
2018-06-07T16:55:59.016Z,46.64
2018-06-07T16:58:27.474Z,45.83
2018-06-07T17:00:57.120Z,46.29
2018-06-07T17:03:26.456Z,46.64
2018-06-07T17:05:55.476Z,48.15
2018-06-07T17:08:23.760Z,48.26
2018-06-07T17:10:51.870Z,49.71
2018-06-07T17:13:20.796Z,50.43
2018-06-07T17:15:49.546Z,51.52
2018-06-07T17:18:18.676Z,53.31
2018-06-07T17:20:47.772Z,54.30
2018-06-07T17:23:16.097Z,57.38
2018-06-07T17:25:44.314Z,60.27
2018-06-07T17:28:13.286Z,62.20
2018-06-07T17:30:41.140Z,63.09
2018-06-07T17:33:10.080Z,64.47
2018-06-07T17:35:38.129Z,65.18
2018-06-07T17:38:06.685Z,65.08
2018-06-07T17:40:35.134Z,64.69
2018-06-07T17:43:04.163Z,64.65
2018-06-07T17:45:32.115Z,66.36
2018-06-07T17:48:00.104Z,67.99
2018-06-07T17:50:29.006Z,67.74
2018-06-07T17:52:56.946Z,68.10
2018-06-07T17:55:25.215Z,68.32
2018-06-07T17:57:53.914Z,63.36
2018-06-07T18:00:21.751Z,64.57
2018-06-07T18:02:49.665Z,68.11
2018-06-07T18:05:17.605Z,71.62
2018-06-07T18:07:45.587Z,75.82
2018-06-07T18:10:13.696Z,78.37
2018-06-07T18:12:41.948Z,82.21
2018-06-07T18:15:10.196Z,82.93
2018-06-07T18:17:38.437Z,83.70
2018-06-07T18:20:06.436Z,85.40
2018-06-07T18:22:34.256Z,88.59
2018-06-07T18:25:02.095Z,90.56
2018-06-07T18:27:30.667Z,93.68
2018-06-07T18:29:58.565Z,94.78
2018-06-07T18:32:27.223Z,95.28
2018-06-07T18:34:55.017Z,96.20
2018-06-07T18:37:23.036Z,95.69
2018-06-07T18:39:51.060Z,94.70
2018-06-07T18:42:19.057Z,91.34
2018-06-07T18:44:46.975Z,90.71
2018-06-07T18:47:15.082Z,91.25
2018-06-07T18:49:43.060Z,92.15
2018-06-07T18:52:10.927Z,92.21
2018-06-07T18:54:39.271Z,91.16
2018-06-07T18:57:07.559Z,90.79
2018-06-07T18:59:35.530Z,91.42
2018-06-07T19:02:03.602Z,93.76
2018-06-07T19:04:31.601Z,92.44
2018-06-07T19:06:59.719Z,91.66
2018-06-07T19:09:33.016Z,92.33
2018-06-07T19:12:00.968Z,92.14
2018-06-07T19:14:34.250Z,92.38
2018-06-07T19:17:02.102Z,92.30
2018-06-07T19:19:35.716Z,93.07
2018-06-07T19:22:03.771Z,92.19
2018-06-07T19:24:33.758Z,93.17
2018-06-07T19:27:07.628Z,93.82
2018-06-07T19:29:36.034Z,94.36
2018-06-07T19:33:10.935Z,93.58
2018-06-07T19:35:38.802Z,92.13
2018-06-07T19:38:06.676Z,91.40
2018-06-07T19:40:39.961Z,91.70
2018-06-07T19:43:08.472Z,91.85
2018-06-07T19:45:36.444Z,92.48
2018-06-07T19:48:05.076Z,93.13
2018-06-07T19:50:33.250Z,93.63
2018-06-07T19:53:01.586Z,93.73
2018-06-07T19:55:29.796Z,92.79
2018-06-07T19:57:57.938Z,94.17
2018-06-07T20:00:26.245Z,95.12
2018-06-07T20:02:54.453Z,94.18
2018-06-07T20:05:22.755Z,94.33
2018-06-07T20:07:51.031Z,95.06
2018-06-07T20:10:19.322Z,95.39
2018-06-07T20:12:47.387Z,95.55
2018-06-07T20:15:15.335Z,95.65
2018-06-07T20:17:43.112Z,95.13
2018-06-07T20:20:10.940Z,94.91
2018-06-07T20:22:39.692Z,95.09
2018-06-07T20:25:07.714Z,95.16
2018-06-07T20:27:36.962Z,96.25
2018-06-07T20:30:59.666Z,93.94
2018-06-07T20:33:28.428Z,93.43
2018-06-07T20:38:24.739Z,90.79
2018-06-07T20:40:54.015Z,90.15
2018-06-07T20:43:22.732Z,91.55
2018-06-07T20:45:51.569Z,92.69
2018-06-07T20:48:20.617Z,93.20
2018-06-07T20:50:49.413Z,93.91
2018-06-07T20:53:18.157Z,93.85
2018-06-07T20:55:46.951Z,94.17
2018-06-07T20:58:16.667Z,94.05
2018-06-07T21:00:45.771Z,94.53
2018-06-07T21:03:14.761Z,94.75
2018-06-07T21:05:44.198Z,94.47
2018-06-07T21:08:13.041Z,95.73
2018-06-07T21:10:41.796Z,94.84
2018-06-07T21:13:10.452Z,94.80
2018-06-07T21:15:40.016Z,95.15
2018-06-07T21:18:09.008Z,95.89
2018-06-07T21:20:37.719Z,95.66
2018-06-07T21:23:06.771Z,96.65
2018-06-07T21:25:35.876Z,96.62
2018-06-07T21:28:04.820Z,96.37
2018-06-07T21:30:33.637Z,96.26
2018-06-07T21:33:02.702Z,96.44
2018-06-07T21:35:31.613Z,96.84
2018-06-07T21:38:00.393Z,97.01
2018-06-07T21:40:29.636Z,96.96
2018-06-07T21:42:58.583Z,97.07
2018-06-07T21:45:27.777Z,96.88
2018-06-07T21:47:56.771Z,96.95
2018-06-07T21:50:25.486Z,97.52
2018-06-07T21:52:54.477Z,97.68
2018-06-07T21:55:23.886Z,97.83
2018-06-07T21:57:52.908Z,98.01
2018-06-07T22:00:22.836Z,98.05
2018-06-07T22:02:51.667Z,97.97
2018-06-07T22:05:20.768Z,97.93
2018-06-07T22:07:49.912Z,97.45
2018-06-07T22:10:19.624Z,97.36
2018-06-07T22:12:48.513Z,97.50
2018-06-07T22:15:17.712Z,97.32
2018-06-07T22:17:46.360Z,96.99
2018-06-07T22:20:16.950Z,96.48
2018-06-07T22:22:47.252Z,97.31
2018-06-07T22:25:16.377Z,97.16
2018-06-07T22:27:45.106Z,97.30
2018-06-07T22:30:14.151Z,96.75
2018-06-07T22:32:42.962Z,96.69
2018-06-07T22:35:11.871Z,97.31
2018-06-07T22:37:40.652Z,97.30
2018-06-07T22:40:09.692Z,97.63
2018-06-07T22:42:38.683Z,97.83
2018-06-07T22:45:07.802Z,97.99
2018-06-07T22:47:36.726Z,97.54
2018-06-07T22:50:05.646Z,97.49
2018-06-07T22:52:34.737Z,97.90
2018-06-07T22:55:03.603Z,97.61
2018-06-07T22:57:32.257Z,97.80
2018-06-07T23:00:01.593Z,97.90
2018-06-07T23:02:30.377Z,97.89
2018-06-07T23:04:59.915Z,97.92
2018-06-07T23:07:28.923Z,98.01
2018-06-07T23:09:57.746Z,97.41
2018-06-07T23:12:26.670Z,97.51
2018-06-07T23:14:55.550Z,97.62
2018-06-07T23:17:25.005Z,98.17
2018-06-07T23:19:54.026Z,97.67
2018-06-07T23:22:22.751Z,97.90
2018-06-07T23:24:51.612Z,98.20
2018-06-07T23:27:20.572Z,97.93
2018-06-07T23:29:49.239Z,97.24
2018-06-07T23:32:18.152Z,97.38
2018-06-07T23:34:46.833Z,97.02
2018-06-07T23:37:15.813Z,97.32
2018-06-07T23:39:44.557Z,97.55
2018-06-07T23:42:13.583Z,97.68
2018-06-07T23:44:42.687Z,96.99
2018-06-07T23:47:12.031Z,97.30
2018-06-07T23:49:40.717Z,97.37
2018-06-07T23:52:09.411Z,97.42
2018-06-07T23:54:38.259Z,97.64
2018-06-07T23:57:06.933Z,97.37
2018-06-07T23:59:36.126Z,97.49
